createdAt,value
2023-01-27T00:00:41.352Z,101715.53
2023-01-27T00:03:11.119Z,101689.97
2023-01-27T00:05:40.678Z,101715.53
2023-01-27T00:08:08.714Z,101718.47
2023-01-27T00:10:36.645Z,101716.63
2023-01-27T00:13:22.099Z,101716.63
2023-01-27T00:15:50.059Z,101714.91
2023-01-27T00:18:17.963Z,101709.50
2023-01-27T00:21:05.063Z,101710.50
2023-01-27T00:23:50.877Z,101717.81
2023-01-27T00:26:19.536Z,101712.38
2023-01-27T00:28:47.883Z,101720.72
2023-01-27T00:31:33.943Z,101720.94
2023-01-27T00:34:09.715Z,101721.56
2023-01-27T00:36:40.174Z,101721.56
2023-01-27T00:39:08.406Z,101718.84
2023-01-27T00:41:36.317Z,101720.72
2023-01-27T00:44:05.593Z,101722.41
2023-01-27T00:46:33.635Z,101728.69
2023-01-27T00:49:01.622Z,101737.03
2023-01-27T00:51:29.542Z,101723.44
2023-01-27T00:53:59.868Z,101737.03
2023-01-27T00:56:28.173Z,101734.31
2023-01-27T00:58:56.129Z,101735.38
2023-01-27T01:01:24.083Z,101736.19
2023-01-27T01:03:52.324Z,101738.09
2023-01-27T01:06:20.273Z,101739.97
2023-01-27T01:08:48.533Z,101740.81
2023-01-27T01:11:17.965Z,101745.41
2023-01-27T01:13:45.947Z,101747.28
2023-01-27T01:16:15.206Z,101742.69
2023-01-27T01:18:43.113Z,101744.75
2023-01-27T01:21:11.114Z,101749.16
2023-01-27T01:23:39.527Z,101752.72
2023-01-27T01:26:07.702Z,101748.31
2023-01-27T01:28:37.043Z,101762.56
2023-01-27T01:31:10.735Z,101752.91
2023-01-27T01:33:38.790Z,101751.03
2023-01-27T01:36:07.822Z,101754.59
2023-01-27T01:38:35.767Z,101755.78
2023-01-27T01:41:03.690Z,101757.47
2023-01-27T01:43:31.595Z,101757.47
2023-01-27T01:46:01.570Z,101752.03
2023-01-27T01:48:34.414Z,101750.34
2023-01-27T01:51:05.237Z,101737.09
2023-01-27T01:53:34.784Z,101757.88
2023-01-27T01:56:06.704Z,101746.75
2023-01-27T01:58:34.900Z,101753.06
2023-01-27T02:01:05.411Z,101759.34
2023-01-27T02:03:33.734Z,101766.47
2023-01-27T02:06:01.933Z,101770.22
2023-01-27T02:08:31.051Z,101730.75
2023-01-27T02:10:58.945Z,101765.81
2023-01-27T02:13:26.857Z,101777.53
2023-01-27T02:15:55.817Z,101764.97
2023-01-27T02:18:25.091Z,101765.81
2023-01-27T02:20:54.171Z,101762.25
2023-01-27T02:23:39.784Z,101770.22
2023-01-27T02:26:11.076Z,101762.22
2023-01-27T02:28:38.987Z,101773.97
2023-01-27T02:31:06.967Z,101778.56
2023-01-27T02:33:34.950Z,101773.13
2023-01-27T02:36:04.782Z,101776.91
2023-01-27T02:38:35.274Z,101764.09
2023-01-27T02:41:05.630Z,101775.41
2023-01-27T02:43:34.956Z,101777.94
2023-01-27T02:46:02.896Z,101778.78
2023-01-27T02:48:30.787Z,101783.81
2023-01-27T02:50:58.687Z,101786.72
2023-01-27T02:53:26.653Z,101780.47
2023-01-27T02:55:54.820Z,101789.44
2023-01-27T02:58:22.716Z,101782.34
2023-01-27T03:00:51.968Z,101793.22
2023-01-27T03:03:19.904Z,101792.38
2023-01-27T03:05:51.496Z,101795.72
2023-01-27T03:08:19.406Z,101789.25
2023-01-27T03:10:55.842Z,101794.06
2023-01-27T03:13:23.818Z,101794.06
2023-01-27T03:16:13.459Z,101787.09
2023-01-27T03:18:47.305Z,101794.06
2023-01-27T03:21:15.236Z,101784.00
2023-01-27T03:23:43.520Z,101782.13
2023-01-27T03:26:11.782Z,101785.91
2023-01-27T03:28:39.685Z,101782.97
2023-01-27T03:31:09.898Z,101784.84
2023-01-27T03:33:43.061Z,101795.53
2023-01-27T03:36:28.172Z,101785.69
2023-01-27T03:39:13.398Z,101788.63
2023-01-27T03:41:59.055Z,101790.50
2023-01-27T03:44:44.081Z,101791.50
2023-01-27T03:47:13.324Z,101797.78
2023-01-27T03:49:41.234Z,101795.91
2023-01-27T03:52:09.151Z,101808.44
2023-01-27T03:54:37.415Z,101812.00
2023-01-27T03:57:06.374Z,101800.13
2023-01-27T03:59:35.103Z,101807.25
2023-01-27T04:02:20.941Z,101806.41
2023-01-27T04:05:07.542Z,101806.56
2023-01-27T04:07:36.061Z,101802.19
2023-01-27T04:10:04.219Z,101802.19
2023-01-27T04:12:31.221Z,101804.25
2023-01-27T04:14:59.405Z,101804.44
2023-01-27T04:17:27.382Z,101803.81
2023-01-27T04:19:57.266Z,101806.53
2023-01-27T04:22:25.162Z,101813.84
2023-01-27T04:24:53.334Z,101802.97
2023-01-27T04:27:21.327Z,101811.13
2023-01-27T04:29:49.239Z,101811.13
2023-01-27T04:32:17.076Z,101816.56
2023-01-27T04:34:45.239Z,101813.84
2023-01-27T04:37:14.686Z,101811.13
2023-01-27T04:39:42.542Z,101802.97
2023-01-27T04:42:10.456Z,101810.28
2023-01-27T04:44:38.613Z,101814.69
2023-01-27T04:47:06.597Z,101811.13
2023-01-27T04:49:34.523Z,101819.28
2023-01-27T04:52:02.419Z,101813.84
2023-01-27T04:54:32.159Z,101818.25
2023-01-27T04:57:00.852Z,101820.97
2023-01-27T04:59:28.823Z,101825.72
2023-01-27T05:01:56.755Z,101820.09
2023-01-27T05:04:26.305Z,101826.38
2023-01-27T05:06:54.409Z,101829.91
2023-01-27T05:09:22.409Z,101831.81
2023-01-27T05:11:51.692Z,101831.81
2023-01-27T05:14:20.078Z,101832.63
2023-01-27T05:16:48.038Z,101832.63
2023-01-27T05:19:16.282Z,101837.03
2023-01-27T05:21:44.510Z,101827.19
2023-01-27T05:24:12.863Z,101837.03
2023-01-27T05:26:40.743Z,101843.13
2023-01-27T05:29:10.282Z,101843.31
2023-01-27T05:31:38.390Z,101842.47
2023-01-27T05:34:06.649Z,101847.06
2023-01-27T05:36:34.570Z,101844.16
2023-01-27T05:39:02.456Z,101841.44
2023-01-27T05:41:31.053Z,101849.59
2023-01-27T05:43:59.242Z,101843.13
2023-01-27T05:46:29.320Z,101846.88
2023-01-27T05:48:58.465Z,101851.28
2023-01-27T05:51:26.762Z,101839.31
2023-01-27T05:53:55.755Z,101846.88
2023-01-27T05:56:24.048Z,101856.06
2023-01-27T05:58:51.975Z,101851.47
2023-01-27T06:01:21.221Z,101860.47
2023-01-27T06:03:50.842Z,101850.84
2023-01-27T06:06:19.766Z,101864.88
2023-01-27T06:08:47.856Z,101860.28
2023-01-27T06:11:16.189Z,101858.59
2023-01-27T06:13:44.515Z,101863.84
2023-01-27T06:16:13.703Z,101855.69
2023-01-27T06:18:41.738Z,101854.66
2023-01-27T06:21:11.655Z,101858.41
2023-01-27T06:23:39.962Z,101857.56
2023-01-27T06:26:09.347Z,101861.97
2023-01-27T06:28:37.287Z,101856.53
2023-01-27T06:31:08.610Z,101854.00
2023-01-27T06:33:36.540Z,101862.78
2023-01-27T06:36:06.172Z,101855.69
2023-01-27T06:38:35.483Z,101866.56
2023-01-27T06:41:03.447Z,101862.78
2023-01-27T06:43:31.364Z,101870.94
2023-01-27T06:45:59.538Z,101864.88
2023-01-27T06:48:27.730Z,101876.59
2023-01-27T06:50:55.790Z,101879.31
2023-01-27T06:53:23.653Z,101880.34
2023-01-27T06:55:57.732Z,101892.91
2023-01-27T06:58:25.662Z,101888.31
2023-01-27T07:00:53.596Z,101887.47
2023-01-27T07:03:21.481Z,101892.06
2023-01-27T07:05:49.721Z,101895.63
2023-01-27T07:08:17.589Z,101885.78
2023-01-27T07:10:45.533Z,101888.50
2023-01-27T07:13:15.007Z,101893.94
2023-01-27T07:15:43.267Z,101898.50
2023-01-27T07:18:11.303Z,101896.81
2023-01-27T07:20:39.206Z,101906.66
2023-01-27T07:23:07.303Z,101898.50
2023-01-27T07:25:35.716Z,101909.38
2023-01-27T07:28:03.763Z,101912.09
2023-01-27T07:30:33.857Z,101906.66
2023-01-27T07:33:04.860Z,101908.94
2023-01-27T07:35:33.025Z,101912.09
2023-01-27T07:38:00.963Z,101912.94
2023-01-27T07:40:28.991Z,101913.97
2023-01-27T07:42:59.401Z,101915.84
2023-01-27T07:45:27.295Z,101911.25
2023-01-27T07:48:01.495Z,101915.84
2023-01-27T07:50:29.436Z,101908.94
2023-01-27T07:53:00.137Z,101919.41
2023-01-27T07:55:28.372Z,101914.34
2023-01-27T07:57:56.301Z,101920.25
2023-01-27T08:00:24.864Z,101915.84
2023-01-27T08:02:52.913Z,101924.66
2023-01-27T08:05:22.721Z,101914.81
2023-01-27T08:07:50.643Z,101927.56
2023-01-27T08:10:18.837Z,101922.97
2023-01-27T08:12:46.753Z,101923.16
2023-01-27T08:15:18.707Z,101930.28
2023-01-27T08:17:53.825Z,101930.28
2023-01-27T08:20:23.196Z,101933.00
2023-01-27T08:22:51.189Z,101936.56
2023-01-27T08:25:19.410Z,101928.41
2023-01-27T08:27:49.955Z,101931.13
2023-01-27T08:30:18.655Z,101925.69
2023-01-27T08:32:46.556Z,101921.09
2023-01-27T08:35:14.715Z,101916.69
2023-01-27T08:37:43.994Z,101919.22
2023-01-27T08:40:13.463Z,101925.69
2023-01-27T08:42:41.563Z,101924.66
2023-01-27T08:45:11.131Z,101920.25
2023-01-27T08:47:39.081Z,101916.50
2023-01-27T08:50:07.632Z,101906.22
2023-01-27T08:52:35.510Z,101926.53
2023-01-27T08:55:05.505Z,101921.09
2023-01-27T08:57:35.234Z,101921.94
2023-01-27T09:00:06.310Z,101926.53
2023-01-27T09:02:34.237Z,101924.66
2023-01-27T09:05:02.452Z,101919.41
2023-01-27T09:07:30.337Z,101924.66
2023-01-27T09:10:12.707Z,101930.94
2023-01-27T09:12:43.470Z,101928.22
2023-01-27T09:15:12.314Z,101926.34
2023-01-27T09:17:40.204Z,101927.38
2023-01-27T09:20:09.253Z,101928.22
2023-01-27T09:22:37.720Z,101934.69
2023-01-27T09:25:06.452Z,101949.13
2023-01-27T09:27:39.582Z,101949.97
2023-01-27T09:30:12.729Z,101949.97
2023-01-27T09:32:40.864Z,101948.09
2023-01-27T09:35:09.913Z,101958.13
2023-01-27T09:37:40.689Z,101962.69
2023-01-27T09:40:13.606Z,101960.81
2023-01-27T09:42:57.297Z,101965.25
2023-01-27T09:45:33.221Z,101954.56
2023-01-27T09:48:11.364Z,101960.16
2023-01-27T09:50:43.498Z,101966.16
2023-01-27T09:53:41.359Z,101980.03
2023-01-27T09:56:12.326Z,101949.03
2023-01-27T09:58:48.590Z,101984.44
2023-01-27T10:01:20.095Z,101988.84
2023-01-27T10:03:59.958Z,101859.50
2023-01-27T10:06:46.617Z,101988.84
2023-01-27T10:09:35.129Z,101993.44
2023-01-27T10:12:07.034Z,101988.84
2023-01-27T10:14:37.636Z,101978.72
2023-01-27T10:17:14.341Z,101983.41
2023-01-27T10:19:50.282Z,101991.56
2023-01-27T10:22:21.167Z,101986.13
2023-01-27T10:24:58.286Z,101988.84
2023-01-27T10:27:26.974Z,101993.44
2023-01-27T10:29:58.509Z,101979.84
2023-01-27T10:32:29.064Z,101986.13
2023-01-27T10:35:05.292Z,101981.72
2023-01-27T10:37:36.237Z,101992.41
2023-01-27T10:40:07.109Z,101980.59
2023-01-27T10:42:37.387Z,101986.97
2023-01-27T10:45:17.625Z,101984.25
2023-01-27T10:47:56.312Z,101984.25
2023-01-27T10:50:26.532Z,101987.16
2023-01-27T10:52:56.502Z,101990.50
2023-01-27T10:55:26.124Z,101971.78
2023-01-27T10:57:56.361Z,101993.22
2023-01-27T11:03:23.311Z,101986.97
2023-01-27T11:05:53.453Z,101985.91
2023-01-27T11:08:23.001Z,101987.78
2023-01-27T11:11:10.066Z,101977.69
2023-01-27T11:13:38.259Z,101978.81
2023-01-27T11:16:06.858Z,101988.63
2023-01-27T11:18:37.327Z,101985.06
2023-01-27T11:21:06.507Z,101987.78
2023-01-27T11:23:35.593Z,101986.78
2023-01-27T11:26:08.033Z,101976.63
2023-01-27T11:28:38.776Z,101981.31
2023-01-27T11:31:10.698Z,101981.31
2023-01-27T11:33:51.740Z,101979.63
2023-01-27T11:36:19.682Z,101974.88
2023-01-27T11:38:47.830Z,101966.63
2023-01-27T11:41:15.722Z,101974.88
2023-01-27T11:43:43.683Z,101972.34
2023-01-27T11:46:13.629Z,101964.00
2023-01-27T11:48:44.318Z,101965.03
2023-01-27T11:51:19.995Z,101892.03
2023-01-27T11:53:47.953Z,101960.63
2023-01-27T11:56:18.798Z,101970.28
2023-01-27T11:58:49.049Z,101936.38
2023-01-27T12:01:18.762Z,101966.72
2023-01-27T12:03:51.459Z,101963.16
2023-01-27T12:06:25.014Z,101965.03
2023-01-27T12:08:52.913Z,101941.53
2023-01-27T12:11:24.892Z,101966.72
2023-01-27T12:13:54.804Z,101961.28
2023-01-27T12:16:22.983Z,101957.53
2023-01-27T12:18:57.496Z,101951.25
2023-01-27T12:21:36.234Z,101946.00
2023-01-27T12:24:04.357Z,101942.25
2023-01-27T12:26:36.497Z,101943.09
2023-01-27T12:29:06.417Z,101925.69
2023-01-27T12:31:34.648Z,101917.06
2023-01-27T12:34:05.698Z,101925.97
2023-01-27T12:36:37.990Z,101925.78
2023-01-27T12:39:07.697Z,101928.84
2023-01-27T12:41:36.872Z,101931.22
2023-01-27T12:44:10.073Z,101928.50
2023-01-27T12:46:38.035Z,101923.91
2023-01-27T12:49:10.994Z,101884.28
2023-01-27T12:51:41.119Z,101922.03
2023-01-27T12:54:16.804Z,101918.66
2023-01-27T12:56:44.707Z,101917.97
2023-01-27T12:59:14.328Z,101926.63
2023-01-27T13:01:44.102Z,101880.09
2023-01-27T13:04:15.740Z,101934.78
2023-01-27T13:06:44.349Z,101938.34
2023-01-27T13:09:24.873Z,101933.94
2023-01-27T13:11:52.757Z,101939.38
2023-01-27T13:14:21.044Z,101937.50
2023-01-27T13:16:53.111Z,101946.50
2023-01-27T13:19:33.232Z,101946.50
2023-01-27T13:22:01.175Z,101951.94
2023-01-27T13:24:33.158Z,101947.34
2023-01-27T13:27:02.100Z,101937.41
2023-01-27T13:29:32.036Z,101948.38
2023-01-27T13:32:03.155Z,101956.50
2023-01-27T13:34:36.913Z,101958.22
2023-01-27T13:37:09.150Z,101957.38
2023-01-27T13:39:46.447Z,101960.94
2023-01-27T13:42:16.429Z,101958.22
2023-01-27T13:44:46.474Z,101960.94
2023-01-27T13:47:17.315Z,101944.88
2023-01-27T13:49:47.874Z,101952.47
2023-01-27T13:52:15.705Z,101962.78
2023-01-27T13:54:43.865Z,101955.84
2023-01-27T13:57:45.028Z,101967.38
2023-01-27T14:00:16.953Z,101965.50
2023-01-27T14:03:08.732Z,101971.13
2023-01-27T14:05:45.298Z,101962.97
2023-01-27T14:08:21.087Z,101968.22
2023-01-27T14:11:01.507Z,101971.97
2023-01-27T14:13:36.918Z,101970.75
2023-01-27T14:16:07.949Z,101976.16
2023-01-27T14:18:36.542Z,101969.72
2023-01-27T14:21:14.441Z,101982.44
2023-01-27T14:23:46.080Z,101978.88
2023-01-27T14:26:23.841Z,101979.94
2023-01-27T14:29:01.955Z,101982.66
2023-01-27T14:31:39.106Z,101958.69
2023-01-27T14:34:11.238Z,101947.72
2023-01-27T14:36:44.095Z,101984.31
2023-01-27T14:39:17.959Z,101979.94
2023-01-27T14:41:47.698Z,101985.38
2023-01-27T14:44:19.135Z,101982.66
2023-01-27T14:46:56.334Z,101977.22
2023-01-27T14:49:30.746Z,101985.38
2023-01-27T14:52:03.393Z,101993.53
2023-01-27T14:54:42.758Z,101953.88
2023-01-27T14:57:20.781Z,101986.41
2023-01-27T14:59:53.117Z,101990.16
2023-01-27T15:02:32.089Z,101987.44
2023-01-27T15:05:01.948Z,101978.34
2023-01-27T15:07:35.065Z,101996.44
2023-01-27T15:10:18.687Z,102005.44
2023-01-27T15:13:13.389Z,102004.75
2023-01-27T15:15:55.040Z,102012.75
2023-01-27T15:18:29.955Z,102015.47
2023-01-27T15:21:09.432Z,102021.91
2023-01-27T15:23:55.458Z,102021.06
2023-01-27T15:26:24.178Z,102018.53
2023-01-27T15:28:52.100Z,102015.91
2023-01-27T15:31:25.104Z,102031.09
2023-01-27T15:33:55.316Z,102041.97
2023-01-27T15:36:58.940Z,102037.56
2023-01-27T15:39:40.440Z,102039.25
2023-01-27T15:42:12.228Z,102047.41
2023-01-27T15:44:41.824Z,102043.84
2023-01-27T15:47:11.781Z,102037.38
2023-01-27T15:49:42.416Z,102041.78
2023-01-27T15:52:11.916Z,102051.97
2023-01-27T15:54:42.593Z,102056.56
2023-01-27T15:57:24.292Z,102052.66
2023-01-27T15:59:59.088Z,102051.53
2023-01-27T16:02:28.773Z,102056.41
2023-01-27T16:04:57.912Z,102051.97
2023-01-27T16:07:28.306Z,102054.69
2023-01-27T16:09:57.629Z,102061.84
2023-01-27T16:12:45.021Z,102066.41
2023-01-27T16:15:24.221Z,102076.25
2023-01-27T16:18:16.601Z,102075.41
2023-01-27T16:20:45.081Z,102010.94
2023-01-27T16:23:14.613Z,102072.88
2023-01-27T16:25:45.331Z,102081.88
2023-01-27T16:28:15.529Z,101976.06
2023-01-27T16:30:48.268Z,102079.91
2023-01-27T16:33:21.603Z,102068.84
2023-01-27T16:35:50.811Z,102067.44
2023-01-27T16:38:23.428Z,102091.72
2023-01-27T16:40:54.025Z,102097.16
2023-01-27T16:43:25.032Z,102097.81
2023-01-27T16:45:53.867Z,102099.88
2023-01-27T16:48:30.911Z,102041.25
2023-01-27T16:51:08.778Z,102098.75
2023-01-27T16:53:36.699Z,102109.53
2023-01-27T16:56:07.067Z,102095.28
2023-01-27T16:58:46.142Z,102080.28
2023-01-27T17:01:21.777Z,102102.88
2023-01-27T17:03:49.720Z,102101.19
2023-01-27T17:06:17.898Z,102109.34
2023-01-27T17:08:46.346Z,102105.78
2023-01-27T17:11:23.236Z,102112.91
2023-01-27T17:13:54.605Z,102113.75
2023-01-27T17:16:25.342Z,102112.91
2023-01-27T17:18:53.738Z,102119.38
2023-01-27T17:21:32.874Z,102114.97
2023-01-27T17:24:03.178Z,102121.91
2023-01-27T17:26:32.509Z,102121.91
2023-01-27T17:29:00.443Z,102128.19
2023-01-27T17:31:28.440Z,102130.72
2023-01-27T17:34:00.764Z,102132.44
2023-01-27T17:36:29.201Z,102133.06
2023-01-27T17:38:58.459Z,102138.50
2023-01-27T17:41:33.939Z,102131.38
2023-01-27T17:44:02.333Z,102130.53
2023-01-27T17:46:32.121Z,102132.22
2023-01-27T17:49:01.741Z,102107.28
2023-01-27T17:51:30.631Z,102135.16
2023-01-27T17:53:58.762Z,102140.59
2023-01-27T17:56:29.246Z,102141.41
2023-01-27T17:58:59.470Z,102131.38
2023-01-27T18:01:27.425Z,102128.88
2023-01-27T18:03:56.379Z,102134.94
2023-01-27T18:06:25.427Z,102127.34
2023-01-27T18:08:54.669Z,102130.53
2023-01-27T18:11:25.260Z,102133.25
2023-01-27T18:13:53.537Z,102144.97
2023-01-27T18:16:23.658Z,102147.69
2023-01-27T18:18:51.711Z,102147.69
2023-01-27T18:21:22.676Z,102151.06
2023-01-27T18:23:51.324Z,102151.91
2023-01-27T18:26:22.136Z,102150.91
2023-01-27T18:28:51.375Z,102147.97
2023-01-27T18:31:23.545Z,102156.78
2023-01-27T18:33:59.180Z,102155.78
2023-01-27T18:36:33.207Z,102153.91
2023-01-27T18:39:01.160Z,102155.78
2023-01-27T18:41:31.787Z,102157.25
2023-01-27T18:44:00.117Z,102158.78
2023-01-27T18:46:29.425Z,102169.66
2023-01-27T18:48:59.607Z,102161.50
2023-01-27T18:51:27.638Z,102172.19
2023-01-27T18:53:55.828Z,102164.03
2023-01-27T18:56:23.716Z,102172.00
2023-01-27T18:58:54.144Z,102170.97
2023-01-27T19:01:23.124Z,102173.69
2023-01-27T19:03:55.477Z,102178.94
2023-01-27T19:06:23.365Z,102175.38
2023-01-27T19:08:52.127Z,102177.06
2023-01-27T19:11:20.088Z,102177.06
2023-01-27T19:13:48.637Z,102177.91
2023-01-27T19:16:17.679Z,102187.09
2023-01-27T19:18:45.623Z,102179.59
2023-01-27T19:21:15.788Z,102175.66
2023-01-27T19:23:44.776Z,102178.38
2023-01-27T19:26:17.251Z,102173.50
2023-01-27T19:28:45.448Z,102172.94
2023-01-27T19:31:13.460Z,102175.84
2023-01-27T19:33:43.995Z,102174.63
2023-01-27T19:36:24.897Z,102175.66
2023-01-27T19:38:54.598Z,102171.94
2023-01-27T19:41:22.503Z,102172.78
2023-01-27T19:43:50.758Z,102178.22
2023-01-27T19:46:21.557Z,102172.78
2023-01-27T19:48:50.228Z,102179.22
2023-01-27T19:51:18.847Z,102186.38
2023-01-27T19:53:48.279Z,102185.69
2023-01-27T19:56:17.543Z,102184.66
2023-01-27T19:58:47.102Z,102191.81
2023-01-27T20:01:15.124Z,102196.41
2023-01-27T20:03:43.254Z,102192.66
2023-01-27T20:06:16.368Z,102061.59
2023-01-27T20:08:44.264Z,102198.25
2023-01-27T20:11:31.931Z,102206.59
2023-01-27T20:13:59.896Z,102206.78
2023-01-27T20:16:28.059Z,102201.34
2023-01-27T20:18:56.979Z,102201.34
2023-01-27T20:21:25.987Z,102207.81
2023-01-27T20:23:54.202Z,102201.53
2023-01-27T20:26:23.983Z,102209.69
2023-01-27T20:28:51.851Z,102210.72
2023-01-27T20:31:22.487Z,102214.28
2023-01-27T20:33:50.929Z,102211.56
2023-01-27T20:36:20.352Z,102218.88
2023-01-27T20:38:48.318Z,102211.75
2023-01-27T20:41:17.464Z,102215.50
2023-01-27T20:43:46.723Z,102214.84
2023-01-27T20:46:16.030Z,102219.06
2023-01-27T20:48:44.396Z,102220.06
2023-01-27T20:51:13.928Z,102216.50
2023-01-27T20:53:45.297Z,102214.84
2023-01-27T20:56:14.215Z,102217.56
2023-01-27T20:58:42.120Z,102215.69
2023-01-27T21:01:12.107Z,102223.00
2023-01-27T21:03:40.259Z,102228.44
2023-01-27T21:06:08.747Z,102234.91
2023-01-27T21:08:36.613Z,102230.66
2023-01-27T21:11:05.081Z,102242.22
2023-01-27T21:13:33.054Z,102241.53
2023-01-27T21:16:02.104Z,102241.34
2023-01-27T21:18:31.399Z,102239.66
2023-01-27T21:21:02.562Z,102253.09
2023-01-27T21:23:31.449Z,102248.66
2023-01-27T21:26:03.915Z,102250.53
2023-01-27T21:28:33.357Z,102250.53
2023-01-27T21:31:06.393Z,102244.25
2023-01-27T21:33:37.008Z,102240.69
2023-01-27T21:36:05.188Z,102252.63
2023-01-27T21:38:33.160Z,102245.31
2023-01-27T21:41:05.499Z,102244.47
2023-01-27T21:43:50.972Z,102240.88
2023-01-27T21:46:19.258Z,102240.88
2023-01-27T21:48:48.665Z,102233.75
2023-01-27T21:51:16.595Z,102235.63
2023-01-27T21:53:44.485Z,102234.78
2023-01-27T21:56:12.362Z,102211.41
2023-01-27T21:58:40.274Z,102237.50
2023-01-27T22:01:08.620Z,102234.94
2023-01-27T22:03:36.542Z,102233.94
2023-01-27T22:06:09.470Z,102233.94
2023-01-27T22:08:37.427Z,102229.34
2023-01-27T22:11:05.406Z,102226.63
2023-01-27T22:13:33.355Z,102222.22
2023-01-27T22:16:01.325Z,102231.38
2023-01-27T22:18:29.262Z,102229.72
2023-01-27T22:20:57.153Z,102239.53
2023-01-27T22:23:26.451Z,102236.00
2023-01-27T22:25:54.492Z,102244.34
2023-01-27T22:28:23.083Z,102247.91
2023-01-27T22:30:51.175Z,102239.25
2023-01-27T22:33:19.158Z,102241.78
2023-01-27T22:35:47.039Z,102244.34
2023-01-27T22:38:15.274Z,102242.47
2023-01-27T22:40:44.536Z,102247.91
2023-01-27T22:43:12.461Z,102242.63
2023-01-27T22:45:40.607Z,102244.50
2023-01-27T22:48:09.802Z,102239.91
2023-01-27T22:50:40.432Z,102239.91
2023-01-27T22:53:08.426Z,102242.63
2023-01-27T22:55:36.631Z,102239.75
2023-01-27T22:58:05.905Z,102241.44
2023-01-27T23:00:35.142Z,102238.91
2023-01-27T23:03:03.067Z,102237.03
2023-01-27T23:05:31.290Z,102241.44
2023-01-27T23:07:59.207Z,102242.47
2023-01-27T23:10:27.148Z,102240.59
2023-01-27T23:12:55.058Z,102238.03
2023-01-27T23:15:24.589Z,102239.75
2023-01-27T23:17:52.488Z,102236.19
2023-01-27T23:20:20.629Z,102242.63
2023-01-27T23:22:48.501Z,102237.19
2023-01-27T23:25:17.154Z,102241.78
2023-01-27T23:27:45.299Z,102247.06
2023-01-27T23:30:13.883Z,102242.63
2023-01-27T23:32:43.197Z,102238.22
2023-01-27T23:35:11.453Z,102235.50
2023-01-27T23:37:39.326Z,102249.94
2023-01-27T23:40:08.576Z,102236.53
2023-01-27T23:42:36.485Z,102240.09
2023-01-27T23:45:04.974Z,102246.38
2023-01-27T23:47:32.817Z,102242.81
2023-01-27T23:50:02.148Z,102236.53
2023-01-27T23:52:31.678Z,102237.56
2023-01-27T23:54:59.844Z,102240.28
2023-01-27T23:57:27.725Z,102232.13
2023-01-27T23:59:55.579Z,102234.84
